EXS1360 LFLB-EGBB
Flight info
| Callsign | EXS1360 |
|---|---|
| Flight time | N/A |
| Altitude | 36000 |
| Route | BUSIL DCT AMORO DCT MOMIL DCT BAGBI DCT SIZZA DCT LAULY DCT BRY DCT CLM DCT KOPOR DCT ABNUR DCT DIMAL DCT ALESO T420 HEMEL |
| Aircraft | A321/M-SDE3FGHIRWY/LB1 |
Departure
| Time | N/A |
|---|---|
| Airport | Chambéry Aix les Bains airport (LFLB) |
Arrival
| Time | 2026-05-04 22:42 |
|---|---|
| Airport | Birmingham Airport (EGBB) |
| Time | Latitude | Longitude | Altitude | Speed | Heading |
|---|---|---|---|---|---|
| 2026-05-04 22:29 | 52.10073 | -0.70738 | 16887 ft | 345 kts | 328° |
| 2026-05-04 22:30 | 52.12123 | -0.72754 | 16465 ft | 343 kts | 328° |
| 2026-05-04 22:30 | 52.14156 | -0.74757 | 16044 ft | 341 kts | 328° |
| 2026-05-04 22:30 | 52.16178 | -0.76749 | 15627 ft | 339 kts | 328° |
| 2026-05-04 22:30 | 52.18188 | -0.78737 | 15218 ft | 337 kts | 328° |
| 2026-05-04 22:31 | 52.20183 | -0.80712 | 14810 ft | 334 kts | 328° |
| 2026-05-04 22:31 | 52.22120 | -0.82788 | 14396 ft | 332 kts | 320° |
| 2026-05-04 22:31 | 52.23738 | -0.85429 | 14000 ft | 329 kts | 307° |
| 2026-05-04 22:31 | 52.24917 | -0.88544 | 13591 ft | 326 kts | 292° |
| 2026-05-04 22:32 | 52.25534 | -0.92050 | 12989 ft | 321 kts | 277° |
| 2026-05-04 22:32 | 52.25689 | -0.95659 | 12325 ft | 318 kts | 271° |
| 2026-05-04 22:32 | 52.25744 | -0.99266 | 11684 ft | 316 kts | 271° |
| 2026-05-04 22:32 | 52.25788 | -1.02830 | 11055 ft | 314 kts | 271° |
| 2026-05-04 22:33 | 52.25826 | -1.06377 | 10436 ft | 311 kts | 271° |
| 2026-05-04 22:33 | 52.25858 | -1.09807 | 10228 ft | 294 kts | 271° |
| 2026-05-04 22:33 | 52.25887 | -1.13083 | 9792 ft | 287 kts | 271° |
| 2026-05-04 22:33 | 52.25911 | -1.16272 | 9268 ft | 284 kts | 271° |
| 2026-05-04 22:34 | 52.25933 | -1.19491 | 8717 ft | 282 kts | 271° |
| 2026-05-04 22:34 | 52.25951 | -1.22676 | 8164 ft | 280 kts | 271° |
| 2026-05-04 22:34 | 52.25968 | -1.25842 | 7613 ft | 278 kts | 271° |
| 2026-05-04 22:34 | 52.25983 | -1.28974 | 7067 ft | 276 kts | 271° |
| 2026-05-04 22:35 | 52.25996 | -1.32049 | 6738 ft | 265 kts | 271° |
| 2026-05-04 22:35 | 52.26007 | -1.34999 | 6436 ft | 254 kts | 270° |
| 2026-05-04 22:35 | 52.26017 | -1.37832 | 6140 ft | 245 kts | 271° |
| 2026-05-04 22:35 | 52.26024 | -1.40546 | 5867 ft | 236 kts | 271° |
| 2026-05-04 22:36 | 52.26030 | -1.42307 | 5658 ft | 233 kts | 271° |
| 2026-05-04 22:36 | 52.26037 | -1.44950 | 5357 ft | 232 kts | 271° |
| 2026-05-04 22:36 | 52.26042 | -1.48432 | 4956 ft | 232 kts | 271° |
| 2026-05-04 22:36 | 52.26120 | -1.51022 | 4727 ft | 226 kts | 283° |
| 2026-05-04 22:37 | 52.26677 | -1.53375 | 4552 ft | 223 kts | 303° |
| 2026-05-04 22:37 | 52.27703 | -1.55241 | 4283 ft | 220 kts | 324° |
| 2026-05-04 22:37 | 52.28548 | -1.56185 | 4095 ft | 216 kts | 327° |
| 2026-05-04 22:37 | 52.29786 | -1.57545 | 3811 ft | 213 kts | 327° |
| 2026-05-04 22:38 | 52.31001 | -1.58884 | 3542 ft | 210 kts | 327° |
| 2026-05-04 22:38 | 52.32181 | -1.60185 | 3268 ft | 196 kts | 327° |
| 2026-05-04 22:38 | 52.33268 | -1.61385 | 3003 ft | 182 kts | 327° |
| 2026-05-04 22:38 | 52.34279 | -1.62501 | 2769 ft | 171 kts | 327° |
| 2026-05-04 22:39 | 52.35248 | -1.63571 | 2550 ft | 167 kts | 327° |
| 2026-05-04 22:39 | 52.36209 | -1.64633 | 2338 ft | 166 kts | 326° |
| 2026-05-04 22:39 | 52.37152 | -1.65676 | 2123 ft | 164 kts | 326° |
| 2026-05-04 22:39 | 52.38096 | -1.66720 | 1909 ft | 163 kts | 326° |
| 2026-05-04 22:40 | 52.39017 | -1.67739 | 1689 ft | 157 kts | 325° |
| 2026-05-04 22:40 | 52.39927 | -1.68745 | 1475 ft | 155 kts | 325° |
| 2026-05-04 22:40 | 52.40788 | -1.69699 | 1279 ft | 152 kts | 326° |
| 2026-05-04 22:40 | 52.41649 | -1.70654 | 1079 ft | 151 kts | 326° |
| 2026-05-04 22:41 | 52.42513 | -1.71613 | 884 ft | 150 kts | 326° |
| 2026-05-04 22:41 | 52.43375 | -1.72569 | 684 ft | 150 kts | 326° |
| 2026-05-04 22:41 | 52.44232 | -1.73519 | 467 ft | 149 kts | 326° |
| 2026-05-04 22:41 | 52.45086 | -1.74466 | 332 ft | 144 kts | 326° |
| 2026-05-04 22:42 | 52.45705 | -1.75157 | 323 ft | 65 kts | 326° |
| 2026-05-04 22:42 | 52.45967 | -1.75449 | 315 ft | 33 kts | 326° |
| 2026-05-04 22:42 | 52.46112 | -1.75609 | 311 ft | 17 kts | 325° |
| 2026-05-04 22:42 | 52.46167 | -1.75582 | 310 ft | 8 kts | 56° |
| 2026-05-04 22:43 | 52.46204 | -1.75492 | 306 ft | 11 kts | 56° |
| 2026-05-04 22:43 | 52.46204 | -1.75383 | 302 ft | 11 kts | 137° |
| 2026-05-04 22:43 | 52.46148 | -1.75320 | 305 ft | 9 kts | 146° |
| 2026-05-04 22:43 | 52.46100 | -1.75268 | 304 ft | 8 kts | 146° |
| 2026-05-04 22:44 | 52.46048 | -1.75210 | 306 ft | 12 kts | 146° |
| 2026-05-04 22:44 | 52.45956 | -1.75110 | 305 ft | 18 kts | 146° |
| 2026-05-04 22:44 | 52.45851 | -1.74992 | 307 ft | 17 kts | 146° |
| 2026-05-04 22:44 | 52.45765 | -1.74897 | 310 ft | 12 kts | 146° |
| 2026-05-04 22:45 | 52.45707 | -1.74832 | 313 ft | 10 kts | 146° |
| 2026-05-04 22:45 | 52.45577 | -1.74689 | 321 ft | 12 kts | 145° |
| 2026-05-04 22:45 | 52.45506 | -1.74609 | 323 ft | 14 kts | 146° |
| 2026-05-04 22:46 | 52.45446 | -1.74480 | 323 ft | 14 kts | 117° |
| 2026-05-04 22:46 | 52.45403 | -1.74337 | 323 ft | 14 kts | 116° |
| 2026-05-04 22:46 | 52.45360 | -1.74197 | 323 ft | 13 kts | 116° |
| 2026-05-04 22:46 | 52.45325 | -1.74083 | 322 ft | 11 kts | 116° |
| 2026-05-04 22:47 | 52.45281 | -1.73977 | 323 ft | 12 kts | 140° |
| 2026-05-04 22:47 | 52.45217 | -1.73904 | 323 ft | 10 kts | 146° |
| 2026-05-04 22:47 | 52.45167 | -1.73849 | 321 ft | 8 kts | 146° |
| 2026-05-04 22:47 | 52.45118 | -1.73796 | 323 ft | 9 kts | 147° |
| 2026-05-04 22:48 | 52.45056 | -1.73754 | 323 ft | 9 kts | 163° |
| 2026-05-04 22:48 | 52.45036 | -1.73711 | 323 ft | 3 kts | 98° |
| 2026-05-04 22:48 | 52.45035 | -1.73664 | 323 ft | 6 kts | 90° |
| 2026-05-04 22:48 | 52.45035 | -1.73616 | 323 ft | 0 kts | 89° |